Nearby METAR Reports

 

KEQY - Monroe, North Carolina, USA
Distance from station: S 11mi, 18km
Updated: Sun, 07/05/2015 8:53am EDT
Clear
Clear
 Wind from SW
Wind: SW 7 mph , 11 km/h
Temperature: 73°F , 23°C
Dew Point: 70°F , 21°C
Humidity: 89%
Barometer: 30.12 inHg , 1020 hPa
Clouds: Clear
Visibility: 10 miles , 16 km
2015/07/05 12:53 KEQY 051253Z AUTO 22006KT 10SM CLR 23/21 A3012 RMK AO2 SLP197 T02280206
KJQF - Concord Reg Arpt, North Carolina, USA
Distance from station: NNW 16mi, 25km
Updated: Sun, 07/05/2015 8:55am EDT
Mostly cloudy
Mostly cloudy
 Wind from SSW
Wind: SSW 5 mph , 7 km/h
Temperature: 73°F , 23°C
Dew Point: 70°F , 21°C
Humidity: 89%
Barometer: 30.15 inHg , 1021 hPa
Clouds: Mostly cloudy
Visibility: 7 miles , 11 km
Cloud details: Mostly cloudy 700 ft
2015/07/05 12:55 KJQF 051255Z 20004KT 7SM BKN007 23/21 A3015
 
KCLT - Charlotte, North Carolina, USA
Distance from station: W 20mi, 33km
Updated: Sun, 07/05/2015 8:52am EDT
Overcast
Overcast
 Wind from SSW
Wind: SSW 7 mph , 11 km/h
Temperature: 73°F , 23°C
Dew Point: 70°F , 21°C
Humidity: 89%
Barometer: 30.13 inHg , 1020.3 hPa
Clouds: Overcast
Visibility: 8 miles , 13 km
Cloud details: Overcast 700 ft
2015/07/05 12:52 KCLT 051252Z 20006KT 8SM OVC007 23/21 A3013 RMK AO2 RAB1157E10 SLP192 P0000 T02330206
KUZA - Rock Hill, South Carolina, USA
Distance from station: WSW 29mi, 47km
Updated: Sun, 07/05/2015 8:54am EDT
Overcast
Overcast
 Wind from SW
Wind: SW 8 mph , 13 km/h
Temperature: 73°F , 23°C
Dew Point: 70°F , 21°C
Humidity: 89%
Barometer: 30.14 inHg , 1020.7 hPa
Clouds: Overcast
Visibility: 8 miles , 13 km
Cloud details: Overcast 800 ft
2015/07/05 12:54 KUZA 051254Z AUTO 22007KT 8SM OVC008 23/21 A3014 RMK AO2 SLP192 T02280211
 
KVUJ - Albemarle Stanly, North Carolina, USA
Distance from station: NE 30mi, 48km
Updated: Sun, 07/05/2015 8:55am EDT
Partly cloudy
Partly cloudy
 Wind from SSW
Wind: SSW 5 mph , 7 km/h
Temperature: 73°F , 23°C
Dew Point: 73°F , 23°C
Humidity: 100%
Barometer: 30.17 inHg , 1021.7 hPa
Clouds: Partly cloudy
Visibility: 10 miles , 16 km
Cloud details: Partly cloudy 700 ft
Partly cloudy 12000 ft
2015/07/05 12:55 KVUJ 051255Z AUTO 21004KT 10SM SCT007 SCT120 23/23 A3017 RMK AO2 T02300225
KAFP - Wadesboro/Anson, North Carolina, USA
Distance from station: ESE 31mi, 50km
Updated: Sun, 07/05/2015 8:55am EDT
Clear
Clear
 Wind from S
Wind: S 5 mph , 7 km/h
Temperature: 79°F , 26°C
Dew Point: 70°F , 21°C
Humidity: 74%
Barometer: 30.11 inHg , 1019.6 hPa
Clouds: Clear
Visibility: 10 miles , 16 km
2015/07/05 12:55 KAFP 051255Z AUTO 19004KT 10SM CLR 26/21 A3011 RMK AO2 T02610209
 
KAKH - Gastonia, North Carolina, USA
Distance from station: W 31mi, 51km
Updated: Sun, 07/05/2015 9:02am EDT
Overcast
Overcast
 Wind from varies
Wind: varies 3 mph , 6 km/h
Temperature: 73°F , 23°C
Dew Point: 70°F , 21°C
Humidity: 89%
Barometer: 30.13 inHg , 1020.3 hPa
Clouds: Overcast
Visibility: 9 miles , 14 km
Cloud details: Overcast 700 ft
2015/07/05 13:02 KAKH 051302Z AUTO VRB03KT 9SM OVC007 23/21 A3013 RMK AO2 T02330206
KRUQ - Salisbury Rowan, North Carolina, USA
Distance from station: N 33mi, 53km
Updated: Sun, 07/05/2015 8:55am EDT
Partly cloudy
Partly cloudy
 Wind from S
Wind: S 3 mph , 6 km/h
Temperature: 73°F , 23°C
Dew Point: 72°F , 22°C
Humidity: 94%
Barometer: 30.12 inHg , 1020 hPa
Clouds: Partly cloudy
Visibility: 10 miles , 16 km
Cloud details: Partly cloudy 12000 ft
2015/07/05 12:55 KRUQ 051255Z AUTO 17003KT 10SM SCT120 23/22 A3012 RMK AO2 T02300218
 
KLKR - Lancaster, South Carolina, USA
Distance from station: SSW 35mi, 57km
Updated: Sun, 07/05/2015 9:15am EDT
Few Clouds
Few Clouds
 Wind from SW
Wind: SW 9 mph , 15 km/h
Temperature: 73°F , 23°C
Dew Point: 73°F , 23°C
Humidity: 100%
Barometer: 30.13 inHg , 1020.3 hPa
Clouds: Few Clouds
Visibility: 10 miles , 16 km
Cloud details: Few Clouds 1000 ft
2015/07/05 13:15 KLKR 051315Z AUTO 23008KT 10SM FEW010 23/23 A3013 RMK AO2
KIPJ - Lincolnton, North Carolina, USA
Distance from station: WNW 39mi, 62km
Updated: Sun, 07/05/2015 8:55am EDT
Overcast
Overcast
 Wind from SSW
Wind: SSW 5 mph , 7 km/h
Temperature: 72°F , 22°C
Dew Point: 70°F , 21°C
Humidity: 94%
Barometer: 30.13 inHg , 1020.3 hPa
Clouds: Overcast
Visibility: 10 miles , 16 km
Cloud details: Overcast 400 ft
2015/07/05 12:55 KIPJ 051255Z AUTO 21004KT 10SM OVC004 22/21 A3013 RMK AO2 T02240208
 
KDCM - Chester Catawba, South Carolina, USA
Distance from station: SW 44mi, 71km
Updated: Sun, 07/05/2015 8:55am EDT
Overcast
Overcast
 Wind from SSW
Wind: SSW 5 mph , 7 km/h
Temperature: 75°F , 24°C
Dew Point: 72°F , 22°C
Humidity: 89%
Barometer: 30.14 inHg , 1020.7 hPa
Clouds: Overcast
Visibility: 7 miles , 11 km
Cloud details: Overcast 700 ft
2015/07/05 12:55 KDCM 051255Z AUTO 20004KT 7SM OVC007 24/22 A3014 RMK AO2
KSVH - Statesville, North Carolina, USA
Distance from station: NNW 44mi, 71km
Updated: Sun, 07/05/2015 8:55am EDT
Mostly cloudy
Mostly cloudy
 Wind from SW
Wind: SW 5 mph , 7 km/h
Temperature: 73°F , 23°C
Dew Point: 70°F , 21°C
Humidity: 89%
Barometer: 30.11 inHg , 1019.6 hPa
Clouds: Mostly cloudy
Visibility: 10 miles , 16 km
Cloud details: Partly cloudy 700 ft
Mostly cloudy 11000 ft
2015/07/05 12:55 KSVH 051255Z AUTO 22004KT 10SM SCT007 BKN110 23/21 A3011 RMK AO2 T02290213
 
KEXX - Davidson Cty Ap, North Carolina, USA
Distance from station: NNE 45mi, 72km
Updated: Sun, 07/05/2015 8:55am EDT
Partly cloudy
Partly cloudy
 Wind from S
Wind: S 6 mph , 9 km/h
Temperature: 73°F , 23°C
Dew Point: 72°F , 22°C
Humidity: 94%
Barometer: 30.12 inHg , 1020 hPa
Clouds: Partly cloudy
Visibility: 10 miles , 16 km
Cloud details: Partly cloudy 700 ft
2015/07/05 12:55 KEXX 051255Z AUTO 18005KT 10SM SCT007 23/22 A3012 RMK AO2 T02340215
KCQW - Cheraw, South Carolina, USA
Distance from station: SE 49mi, 78km
Updated: Sun, 07/05/2015 8:55am EDT
Clear
Clear
 Wind from SW
Wind: SW 5 mph , 7 km/h
Temperature: 77°F , 25°C
Dew Point: 68°F , 20°C
Humidity: 74%
Barometer: 30.12 inHg , 1020 hPa
Clouds: Clear
Visibility: 8 miles , 13 km
2015/07/05 12:55 KCQW 051255Z AUTO 22004KT 8SM CLR 25/20 A3012 RMK AO2